LGTSLCLK

Guest
Details From LGTS - Thessalonik Makedonia
To LCLK - Larnaca
Flight Number -
Tags decoded
Created
Modified
Stats Distance 633 nm / 1,172 km
Max Altitude 0 ft / 0 m
Waypoints 15
Social Downloads 5
Likes 0
Share

Download

Looking for another format? Having issues loading an existing format? Contact us
Advertisement - Login to hide

Notes

Requested: LGTS TSL UN130 MES UL609 RDS UM601 EVENO UR19 DASNI UM601 DAROS R19 ADLAS LCLK Unmatched points: R19 ADLAS

Route

LGTS TSL UN130 MES UL609 RDS UM601 DAROS LCLK

ID Type Via Altitude (ft/m) Position (lat/lon) Dist (leg/tot) Name
O LGTS APT - 0 / 0 40.51952 / 22.97202 - / 0 nm Thessalonik Makedonia
TSL VOR - 0 / 0 40.45694 / 22.99111 3 / 3 nm THESSALONIKI VOR-DME
ESOPO FIX UN130 (AWY-HI) 0 / 0 39.33944 / 24.50222 96 / 100 nm
PIVOS FIX UN130 (AWY-HI) 0 / 0 38.37472 / 25.75028 82 / 182 nm
MES VOR UN130 (AWY-HI) 0 / 0 38.25167 / 25.90556 10 / 193 nm MESTA VOR-DME
PIPEN FIX UL609 (AWY-HI) 0 / 0 38.06139 / 26.11667 15 / 208 nm
IKARO FIX UL609 (AWY-HI) 0 / 0 37.86639 / 26.33111 15 / 223 nm
URNIL FIX UL609 (AWY-HI) 0 / 0 37.68500 / 26.52861 14 / 238 nm
LARKI FIX UL609 (AWY-HI) 0 / 0 37.39889 / 26.83833 22 / 260 nm
RDS VOR UL609 (AWY-HI) 0 / 0 36.34111 / 28.08250 87 / 348 nm RODOS VOR-DME
EXELA FIX UM601 (AWY-HI) 0 / 0 35.95556 / 29.54778 74 / 422 nm
EVENO FIX UM601 (AWY-HI) 0 / 0 35.83333 / 30.00000 23 / 446 nm
DASNI FIX UM601 (AWY-HI) 0 / 0 35.61667 / 30.85000 43 / 489 nm
DAROS FIX UM601 (AWY-HI) 0 / 0 35.01167 / 33.14833 118 / 607 nm
O LCLK APT - 0 / 0 34.87512 / 33.62483 24 / 632 nm Larnaca

Altitude Profile

Advertisement - Login to hide

Weather


0- 5 10 15 20 25 30 35+ Temperature / °C

Clouds and Precipitation
Forecast for 2021-03-22 12:00 UTC. Updated 2 months ago

Ground ~20,000 ft ~40,000 ft Winds

LGTS

Details ICAO LGTS (SKG)
Name Thessaloniki Makedonia International Airport
Region Greece
Timezone Europe/Athens (UTC+3.0)
Stats Elevation 21 ft / 6 m (AMSL)
Location 40.520100° 22.969100°
Runways 2
Magnetic Variation 4.966° E

METAR

LGTS 111920Z VRB02KT CAVOK 16/12 Q1015 NOSIG

Decode

TAF

TAF LGTS 111700Z 1118/1218 17010KT 9999 FEW030 BECMG 1118/1120 VRB03KT BECMG 1211/1213 17015KT SCT030 PROB40 TEMPO 1214/1218 4000 TSRA FEW010 FEW015CB BKN025

Decode

Departure Runways

ID Width Length Bearing (true/mag) Surface Threshold Overrun Markings Lighting
10 164 ft / 50 m 11,259 ft / 3,432 m 103.98° / 99.02° ASPHALT 0 ft / 0 m 0 ft / 0 m PREC-APP CENTERLINE EDGE THRESHOLD SALS
16 200 ft / 61 m 7,975 ft / 2,431 m 166.43° / 161.47° ASPHALT 0 ft / 0 m 0 ft / 0 m PREC-APP CENTERLINE EDGE THRESHOLD ALSF-II TDZ
28 164 ft / 50 m 11,259 ft / 3,432 m 284.01° / 279.04° ASPHALT 0 ft / 0 m 0 ft / 0 m PREC-APP CENTERLINE EDGE THRESHOLD ALSF-I
34 200 ft / 61 m 7,975 ft / 2,431 m 346.44° / 341.47° ASPHALT 0 ft / 0 m 0 ft / 0 m PREC-APP CENTERLINE EDGE THRESHOLD SALS

LCLK

Details ICAO LCLK (LCA)
Name Larnaca Intl
Region Cyprus
Timezone Asia/Nicosia (UTC+3.0)
Stats Elevation 11 ft / 3 m (AMSL)
Location 34.873800° 33.624000°
Runways 1
Magnetic Variation 5.286° E

METAR

LCLK 111930Z 22004KT CAVOK 21/17 Q1008 NOSIG

Decode

TAF

TAF LCLK 111730Z 1118/1218 32006KT CAVOK BECMG 1207/1211 22016KT= TAF LCPH 111730Z 1118/1218 35007KT 9999 FEW020 PROB30 1121/1206 BKN008 BECMG 1207/1211 27012KT

Decode

Destination Runways

ID Width Length Bearing (true/mag) Surface Threshold Overrun Markings Lighting
04 148 ft / 45 m 9,832 ft / 2,997 m 45.08° / 39.79° ASPHALT 0 ft / 0 m 0 ft / 0 m PREC-APP CENTERLINE EDGE THRESHOLD ALSF-II REIL-OMNI
22 148 ft / 45 m 9,832 ft / 2,997 m 225.09° / 219.81° ASPHALT 627 ft / 191 m 0 ft / 0 m PREC-APP CENTERLINE EDGE THRESHOLD ALSF-II REIL-OMNI

Approach Navaids

Runway Type Ident Frequency Range Bearing (true/mag) Slope Elevation
22 DME ILC 110.30 MHz 18 nm / 33 km - - 20 ft / 6 m (AMSL)
22 LOC-ILS ILC 110.30 MHz 18 nm / 33 km 225.09° / 219.80 ° - 11 ft / 3 m (AMSL)
22 GS ILC 110.30 MHz 10 nm / 19 km 225.09° / 219.80 ° 2.75° 11 ft / 3 m (AMSL)

Popular Alternatives